createdAt,value
2019-02-27T00:02:17.328Z,31.33
2019-02-27T00:05:08.474Z,32.33
2019-02-27T00:07:56.691Z,30.62
2019-02-27T00:10:39.240Z,31.50
2019-02-27T00:13:29.541Z,23.98
2019-02-27T00:16:15.525Z,25.50
2019-02-27T00:18:58.557Z,27.42
2019-02-27T00:21:48.938Z,25.68
2019-02-27T00:24:29.880Z,29.65
2019-02-27T00:27:09.956Z,29.85
2019-02-27T00:29:47.904Z,30.10
2019-02-27T00:32:26.911Z,28.32
2019-02-27T00:35:07.269Z,35.85
2019-02-27T00:37:46.318Z,33.65
2019-02-27T00:40:24.845Z,33.28
2019-02-27T00:43:02.896Z,31.65
2019-02-27T00:45:41.227Z,28.30
2019-02-27T00:48:20.613Z,37.17
2019-02-27T00:50:59.761Z,34.10
2019-02-27T00:53:36.743Z,31.12
2019-02-27T00:59:23.697Z,29.02
2019-02-27T01:02:01.708Z,27.87
2019-02-27T01:04:40.676Z,27.48
2019-02-27T01:07:37.161Z,29.92
2019-02-27T01:10:19.447Z,24.32
2019-02-27T01:13:03.259Z,26.12
2019-02-27T01:15:45.932Z,29.57
2019-02-27T01:18:24.105Z,27.32
2019-02-27T01:21:02.530Z,27.10
2019-02-27T01:23:43.740Z,32.23
2019-02-27T01:26:31.587Z,31.23
2019-02-27T01:29:12.034Z,29.00
2019-02-27T01:31:52.183Z,26.17
2019-02-27T01:34:30.383Z,29.05
2019-02-27T01:37:24.892Z,33.92
2019-02-27T01:40:05.052Z,25.92
2019-02-27T01:42:54.815Z,27.95
2019-02-27T01:45:32.653Z,37.13
2019-02-27T01:48:11.985Z,29.45
2019-02-27T01:50:55.222Z,30.48
2019-02-27T01:53:43.484Z,26.93
2019-02-27T01:56:21.404Z,25.37
2019-02-27T01:58:59.941Z,26.20
2019-02-27T02:01:37.859Z,30.95
2019-02-27T02:04:20.052Z,35.88
2019-02-27T02:06:56.069Z,26.10
2019-02-27T02:09:39.708Z,31.87
2019-02-27T02:12:21.811Z,28.80
2019-02-27T02:15:17.589Z,21.52
2019-02-27T02:18:45.800Z,22.27
2019-02-27T02:22:08.896Z,19.52
2019-02-27T02:25:15.301Z,21.73
2019-02-27T02:28:15.409Z,14.50
2019-02-27T02:31:30.299Z,26.70
2019-02-27T02:35:00.427Z,21.40
2019-02-27T02:38:17.565Z,23.70
2019-02-27T02:41:32.893Z,15.43
2019-02-27T02:45:19.745Z,12.07
2019-02-27T02:49:08.010Z,14.45
2019-02-27T02:52:40.165Z,14.68
2019-02-27T02:59:30.603Z,10.32
2019-02-27T03:02:42.829Z,13.70
2019-02-27T03:05:59.796Z,19.85
2019-02-27T03:08:55.040Z,13.20
2019-02-27T03:12:04.771Z,10.30
2019-02-27T03:15:15.255Z,17.37
2019-02-27T03:18:48.319Z,12.63
2019-02-27T03:21:50.130Z,10.08
2019-02-27T03:25:27.878Z,10.45
2019-02-27T03:28:45.196Z,12.50
2019-02-27T03:31:57.461Z,12.63
2019-02-27T03:34:51.277Z,10.70
2019-02-27T03:37:58.365Z,9.40
2019-02-27T03:40:50.794Z,13.80
2019-02-27T03:43:45.706Z,10.30
2019-02-27T03:46:40.786Z,8.23
2019-02-27T03:49:51.502Z,14.25
2019-02-27T03:53:16.956Z,10.75
2019-02-27T03:56:43.920Z,8.70
2019-02-27T04:00:07.354Z,14.18
2019-02-27T04:03:18.185Z,16.42
2019-02-27T04:06:20.133Z,13.78
2019-02-27T04:08:58.615Z,11.78
2019-02-27T04:11:41.554Z,9.08
2019-02-27T04:14:47.806Z,14.87
2019-02-27T04:17:29.522Z,10.38
2019-02-27T04:20:06.800Z,12.63
2019-02-27T04:22:45.407Z,14.00
2019-02-27T04:25:22.728Z,10.32
2019-02-27T04:28:00.357Z,15.43
2019-02-27T04:30:37.471Z,12.00
2019-02-27T04:33:14.619Z,13.15
2019-02-27T04:36:01.541Z,11.73
2019-02-27T04:38:38.569Z,15.13
2019-02-27T04:41:17.895Z,16.80
2019-02-27T04:43:55.113Z,15.78
2019-02-27T04:46:32.399Z,15.28
2019-02-27T04:49:10.591Z,14.47
2019-02-27T04:51:48.019Z,16.30
2019-02-27T04:54:26.466Z,16.10
2019-02-27T04:57:03.603Z,18.35
2019-02-27T04:59:42.831Z,19.05
2019-02-27T05:02:19.934Z,16.48
2019-02-27T05:04:57.375Z,19.27
2019-02-27T05:07:36.061Z,17.70
2019-02-27T05:10:15.545Z,21.10
2019-02-27T05:12:54.504Z,19.85
2019-02-27T05:15:31.156Z,18.85
2019-02-27T05:18:08.791Z,20.72
2019-02-27T05:20:46.075Z,20.32
2019-02-27T05:23:23.380Z,18.90
2019-02-27T05:26:00.708Z,24.80
2019-02-27T05:28:37.776Z,16.85
2019-02-27T05:31:18.298Z,18.65
2019-02-27T05:33:55.455Z,19.65
2019-02-27T05:36:33.336Z,27.48
2019-02-27T05:39:14.872Z,22.45
2019-02-27T05:41:51.226Z,27.30
2019-02-27T05:44:28.773Z,25.08
2019-02-27T05:47:08.649Z,29.70
2019-02-27T05:49:49.846Z,26.55
2019-02-27T05:52:26.672Z,28.07
2019-02-27T05:55:06.147Z,26.35
2019-02-27T05:57:45.000Z,29.23
2019-02-27T06:00:22.827Z,28.10
2019-02-27T06:03:00.732Z,28.02
2019-02-27T06:05:39.410Z,27.77
2019-02-27T06:08:16.936Z,26.45
2019-02-27T06:10:55.989Z,29.02
2019-02-27T06:13:33.971Z,31.70
2019-02-27T06:16:11.689Z,35.15
2019-02-27T06:18:49.273Z,32.83
2019-02-27T06:21:25.689Z,33.05
2019-02-27T06:24:03.169Z,32.65
2019-02-27T06:26:41.607Z,34.43
2019-02-27T06:29:18.621Z,29.63
2019-02-27T06:31:55.325Z,29.60
2019-02-27T06:34:34.219Z,33.02
2019-02-27T06:37:15.299Z,35.33
2019-02-27T06:39:50.145Z,36.25
2019-02-27T06:42:27.519Z,30.92
2019-02-27T06:45:04.611Z,31.75
2019-02-27T06:47:41.626Z,33.85
2019-02-27T06:50:25.532Z,34.55
2019-02-27T06:53:03.073Z,29.65
2019-02-27T06:55:40.742Z,35.28
2019-02-27T06:58:17.777Z,32.73
2019-02-27T07:00:54.908Z,35.88
2019-02-27T07:03:32.954Z,31.93
2019-02-27T07:06:10.092Z,33.33
2019-02-27T07:08:46.894Z,35.45
2019-02-27T07:11:25.430Z,27.60
2019-02-27T07:14:02.216Z,33.10
2019-02-27T07:16:57.025Z,29.60
2019-02-27T07:19:33.424Z,33.13
2019-02-27T07:22:12.662Z,25.92
2019-02-27T07:24:49.812Z,27.27
2019-02-27T07:27:28.289Z,26.45
2019-02-27T07:30:07.404Z,29.65
2019-02-27T07:32:45.824Z,29.00
2019-02-27T07:35:25.513Z,29.20
2019-02-27T07:38:02.147Z,27.02
2019-02-27T07:40:42.719Z,26.50
2019-02-27T07:43:18.547Z,31.15
2019-02-27T07:45:54.984Z,28.17
2019-02-27T07:48:31.218Z,27.70
2019-02-27T07:51:08.934Z,23.90
2019-02-27T07:53:45.915Z,28.17
2019-02-27T07:56:24.117Z,27.02
2019-02-27T07:59:02.293Z,23.47
2019-02-27T08:01:43.781Z,21.97
2019-02-27T08:04:19.241Z,25.72
2019-02-27T08:06:57.035Z,20.27
2019-02-27T08:09:34.217Z,26.05
2019-02-27T08:12:11.326Z,26.52
2019-02-27T08:14:48.484Z,21.75
2019-02-27T08:17:26.404Z,26.23
2019-02-27T08:20:04.198Z,23.80
2019-02-27T08:22:42.041Z,24.32
2019-02-27T08:25:20.429Z,27.20
2019-02-27T08:27:57.749Z,23.67
2019-02-27T08:30:34.852Z,23.83
2019-02-27T08:33:11.987Z,21.73
2019-02-27T08:35:49.526Z,24.57
2019-02-27T08:38:27.592Z,24.30
2019-02-27T08:41:04.946Z,22.90
2019-02-27T08:43:53.876Z,25.05
2019-02-27T08:46:30.984Z,23.15
2019-02-27T08:49:09.258Z,25.15
2019-02-27T08:51:58.616Z,25.88
2019-02-27T08:54:35.788Z,24.47
2019-02-27T08:57:13.906Z,32.48
2019-02-27T09:00:03.166Z,23.57
2019-02-27T09:02:42.118Z,20.23
2019-02-27T09:05:20.956Z,25.80
2019-02-27T09:07:59.138Z,22.77
2019-02-27T09:10:36.307Z,28.12
2019-02-27T09:13:13.443Z,24.43
2019-02-27T09:15:50.692Z,24.72
2019-02-27T09:18:28.405Z,27.60
2019-02-27T09:21:06.009Z,24.87
2019-02-27T09:23:43.583Z,24.43
2019-02-27T09:26:21.186Z,27.10
2019-02-27T09:28:58.474Z,26.97
2019-02-27T09:31:37.755Z,35.13
2019-02-27T09:34:14.443Z,27.10
2019-02-27T09:36:52.152Z,28.40
2019-02-27T09:39:31.095Z,31.25
2019-02-27T09:42:08.602Z,28.35
2019-02-27T09:44:46.217Z,39.67
2019-02-27T09:47:25.746Z,37.15
2019-02-27T09:50:01.956Z,35.90
2019-02-27T09:52:40.317Z,39.05
2019-02-27T09:55:19.995Z,45.05
2019-02-27T09:57:56.721Z,47.53
2019-02-27T10:00:42.089Z,42.17
2019-02-27T10:03:21.147Z,53.68
2019-02-27T10:05:58.355Z,49.18
2019-02-27T10:08:35.579Z,52.62
2019-02-27T10:11:12.693Z,49.53
2019-02-27T10:13:50.013Z,49.58
2019-02-27T10:16:28.003Z,50.43
2019-02-27T10:19:05.216Z,56.08
2019-02-27T10:21:44.586Z,49.03
2019-02-27T10:24:21.365Z,47.10
2019-02-27T10:26:58.961Z,56.75
2019-02-27T10:29:36.125Z,57.13
2019-02-27T10:32:13.567Z,53.63
2019-02-27T10:34:53.678Z,49.33
2019-02-27T10:37:29.961Z,47.27
2019-02-27T10:40:11.423Z,51.83
2019-02-27T10:42:50.415Z,57.05
2019-02-27T10:45:27.246Z,51.35
2019-02-27T10:48:04.330Z,47.17
2019-02-27T10:50:42.013Z,51.23
2019-02-27T10:53:19.422Z,53.28
2019-02-27T10:55:56.748Z,55.30
2019-02-27T10:58:35.069Z,58.17
2019-02-27T11:01:12.551Z,57.75
2019-02-27T11:03:50.196Z,58.05
2019-02-27T11:06:33.910Z,56.20
2019-02-27T11:09:19.218Z,53.57
2019-02-27T11:11:56.493Z,56.40
2019-02-27T11:14:33.894Z,54.75
2019-02-27T11:17:10.702Z,55.38
2019-02-27T11:20:06.656Z,59.60
2019-02-27T11:22:43.977Z,56.50
2019-02-27T11:25:23.251Z,58.25
2019-02-27T11:28:01.238Z,54.48
2019-02-27T11:30:38.825Z,52.53
2019-02-27T11:33:25.051Z,50.28
2019-02-27T11:35:55.886Z,52.78
2019-02-27T11:38:33.464Z,44.60
2019-02-27T11:41:15.151Z,48.70
2019-02-27T11:43:49.847Z,44.95
2019-02-27T11:46:27.119Z,43.55
2019-02-27T11:49:04.411Z,41.80
2019-02-27T11:51:42.062Z,51.28
2019-02-27T11:54:19.350Z,43.38
2019-02-27T11:56:57.052Z,42.60
2019-02-27T11:59:34.498Z,48.00
2019-02-27T12:02:11.597Z,49.08
2019-02-27T12:04:53.452Z,46.33
2019-02-27T12:07:28.491Z,44.85
2019-02-27T12:10:06.573Z,46.70
2019-02-27T12:12:45.135Z,47.58
2019-02-27T12:15:24.382Z,48.60
2019-02-27T12:18:01.880Z,45.60
2019-02-27T12:20:40.381Z,44.18
2019-02-27T12:23:17.618Z,45.78
2019-02-27T12:25:54.839Z,45.58
2019-02-27T12:28:31.996Z,46.70
2019-02-27T12:31:11.089Z,45.95
2019-02-27T12:33:47.978Z,47.33
2019-02-27T12:36:25.163Z,49.03
2019-02-27T12:39:02.443Z,53.23
2019-02-27T12:41:41.268Z,46.05
2019-02-27T12:44:18.691Z,39.90
2019-02-27T12:46:55.990Z,44.63
2019-02-27T12:49:33.278Z,51.58
2019-02-27T12:52:12.102Z,41.20
2019-02-27T12:54:49.674Z,55.28
2019-02-27T12:57:26.942Z,55.67
2019-02-27T13:00:05.766Z,50.30
2019-02-27T13:02:43.631Z,47.70
2019-02-27T13:05:21.052Z,42.03
2019-02-27T13:07:58.287Z,44.53
2019-02-27T13:10:35.775Z,41.08
2019-02-27T13:13:12.900Z,41.63
2019-02-27T13:15:50.138Z,49.50
2019-02-27T13:18:31.642Z,45.35
2019-02-27T13:21:06.237Z,48.00
2019-02-27T13:23:43.379Z,46.80
2019-02-27T13:26:21.514Z,46.37
2019-02-27T13:28:58.743Z,45.95
2019-02-27T13:31:36.161Z,44.40
2019-02-27T13:34:13.857Z,48.30
2019-02-27T13:36:51.535Z,45.98
2019-02-27T13:39:28.610Z,48.17
2019-02-27T13:42:18.639Z,47.05
2019-02-27T13:44:56.538Z,44.35
2019-02-27T13:47:33.784Z,41.80
2019-02-27T13:50:10.919Z,42.03
2019-02-27T13:52:50.585Z,41.00
2019-02-27T13:55:27.378Z,43.78
2019-02-27T13:58:04.990Z,43.85
2019-02-27T14:00:42.206Z,39.10
2019-02-27T14:03:19.322Z,37.65
2019-02-27T14:05:57.059Z,41.45
2019-02-27T14:08:34.233Z,41.00
2019-02-27T14:11:11.368Z,41.48
2019-02-27T14:13:48.631Z,43.58
2019-02-27T14:16:25.808Z,44.35
2019-02-27T14:19:03.109Z,38.80
2019-02-27T14:21:40.169Z,44.98
2019-02-27T14:24:20.321Z,45.08
2019-02-27T14:26:57.141Z,43.05
2019-02-27T14:29:33.749Z,46.60
2019-02-27T14:32:10.878Z,52.65
2019-02-27T14:34:53.543Z,42.03
2019-02-27T14:37:30.393Z,42.53
2019-02-27T14:40:09.855Z,41.40
2019-02-27T14:42:46.423Z,39.23
2019-02-27T14:45:23.609Z,46.50
2019-02-27T18:16:37.330Z,64.37
2019-02-27T18:19:16.745Z,60.05
2019-02-27T18:21:54.225Z,66.17
2019-02-27T18:24:34.115Z,54.90
2019-02-27T18:27:10.855Z,58.50
2019-02-27T18:29:47.465Z,55.30
2019-02-27T18:33:24.015Z,57.13
2019-02-27T18:36:04.348Z,61.45
2019-02-27T18:38:39.748Z,56.48
2019-02-27T18:41:16.485Z,51.00
2019-02-27T18:43:53.450Z,52.58
2019-02-27T18:46:30.831Z,59.13
2019-02-27T18:49:27.047Z,59.05
2019-02-27T18:52:06.705Z,49.58
2019-02-27T18:54:55.610Z,50.78
2019-02-27T18:57:32.692Z,57.60
2019-02-27T19:00:14.946Z,52.03
2019-02-27T19:03:05.488Z,58.33
2019-02-27T19:05:42.430Z,59.38
2019-02-27T19:08:20.207Z,63.63
2019-02-27T19:10:57.487Z,54.35
2019-02-27T19:13:35.210Z,59.75
2019-02-27T19:16:12.538Z,58.98
2019-02-27T19:18:50.010Z,50.17
2019-02-27T19:21:27.416Z,52.08
2019-02-27T19:24:04.810Z,56.35
2019-02-27T19:26:44.324Z,54.65
2019-02-27T19:29:20.328Z,50.80
2019-02-27T19:31:58.768Z,51.83
2019-02-27T19:34:36.657Z,52.17
2019-02-27T19:37:13.668Z,51.35
2019-02-27T19:39:53.417Z,59.05
2019-02-27T19:42:31.157Z,56.63
2019-02-27T19:45:08.643Z,55.80
2019-02-27T19:47:46.174Z,52.33
2019-02-27T19:50:23.333Z,56.02
2019-02-27T19:53:05.207Z,56.42
2019-02-27T19:55:39.094Z,52.38
2019-02-27T19:58:18.094Z,55.85
2019-02-27T20:00:56.194Z,54.27
2019-02-27T20:03:35.429Z,58.60
2019-02-27T20:06:12.437Z,56.48
2019-02-27T20:08:49.769Z,52.05
2019-02-27T20:11:26.763Z,51.55
2019-02-27T20:14:04.142Z,49.33
2019-02-27T20:16:41.390Z,59.58
2019-02-27T20:19:22.356Z,59.45
2019-02-27T20:21:59.309Z,54.85
2019-02-27T20:24:36.755Z,56.37
2019-02-27T20:27:14.066Z,57.53
2019-02-27T20:29:53.814Z,54.03
2019-02-27T20:32:30.981Z,58.83
2019-02-27T20:35:08.920Z,61.63
2019-02-27T20:37:46.227Z,56.98
2019-02-27T20:40:23.459Z,59.18
2019-02-27T20:43:01.703Z,61.85
2019-02-27T20:45:40.027Z,60.95
2019-02-27T20:48:18.966Z,62.98
2019-02-27T20:50:56.504Z,60.38
2019-02-27T20:53:33.580Z,60.00
2019-02-27T20:56:10.954Z,57.62
2019-02-27T20:58:51.130Z,62.78
2019-02-27T21:01:27.007Z,57.13
2019-02-27T21:04:04.228Z,61.60
2019-02-27T21:06:47.221Z,54.70
2019-02-27T21:09:20.526Z,51.55
2019-02-27T21:11:57.585Z,57.48
2019-02-27T21:14:34.772Z,53.50
2019-02-27T21:17:11.978Z,53.80
2019-02-27T21:19:49.424Z,56.53
2019-02-27T21:22:27.929Z,50.40
2019-02-27T21:25:05.565Z,52.55
2019-02-27T21:27:43.619Z,56.42
2019-02-27T21:30:33.134Z,48.23
2019-02-27T21:33:12.099Z,56.70
2019-02-27T21:35:49.487Z,56.42
2019-02-27T21:38:28.347Z,53.90
2019-02-27T21:41:11.472Z,51.53
2019-02-27T21:43:44.387Z,54.05
2019-02-27T21:46:23.222Z,52.58
2019-02-27T21:49:00.947Z,53.50
2019-02-27T21:51:39.129Z,53.55
2019-02-27T21:54:16.426Z,55.33
2019-02-27T21:56:55.155Z,55.85
2019-02-27T21:59:32.167Z,55.50
2019-02-27T22:02:12.829Z,58.75
2019-02-27T22:04:49.967Z,55.23
2019-02-27T22:07:27.179Z,57.40
2019-02-27T22:10:04.933Z,56.37
2019-02-27T22:12:42.318Z,55.48
2019-02-27T22:15:23.292Z,55.40
2019-02-27T22:18:00.409Z,55.65
2019-02-27T22:20:37.734Z,55.52
2019-02-27T22:23:20.887Z,54.03
2019-02-27T22:25:57.713Z,53.28
2019-02-27T22:28:34.670Z,50.55
2019-02-27T22:31:12.497Z,53.42
2019-02-27T22:33:49.748Z,55.08
2019-02-27T22:36:27.253Z,51.08
2019-02-27T22:39:06.141Z,54.08
2019-02-27T22:41:46.801Z,55.85
2019-02-27T22:44:26.355Z,56.65
2019-02-27T22:47:03.048Z,50.50
2019-02-27T22:49:40.719Z,50.43
2019-02-27T22:52:19.232Z,51.50
2019-02-27T22:54:56.885Z,51.10
2019-02-27T22:57:34.134Z,53.75
2019-02-27T23:01:01.841Z,51.10
2019-02-27T23:03:44.071Z,47.60
2019-02-27T23:06:21.437Z,46.00
2019-02-27T23:08:58.680Z,47.48
2019-02-27T23:11:36.757Z,48.85
2019-02-27T23:14:14.388Z,49.58
2019-02-27T23:16:52.938Z,49.27
2019-02-27T23:19:31.940Z,45.33
2019-02-27T23:22:09.056Z,49.45
2019-02-27T23:24:46.300Z,49.67
2019-02-27T23:27:26.182Z,50.40
2019-02-27T23:30:04.935Z,53.63
2019-02-27T23:32:42.559Z,48.85
2019-02-27T23:35:20.412Z,48.20
2019-02-27T23:38:00.529Z,47.30
2019-02-27T23:40:36.803Z,47.33
2019-02-27T23:43:14.274Z,51.18
2019-02-27T23:45:51.583Z,51.15
2019-02-27T23:48:28.765Z,48.10
2019-02-27T23:51:06.036Z,49.70
2019-02-27T23:53:43.239Z,43.42
2019-02-27T23:56:20.683Z,46.70
2019-02-27T23:59:02.389Z,43.58
